Time,TemperatureF,DewpointF,PressureIn,WindDirection,WindDirectionDegrees,WindSpeedMPH,WindSpeedGustMPH,Humidity,HourlyPrecipIn,Conditions,Clouds,dailyrainin,SoftwareType,DateUTC
2013-09-01 00:01:00,67.8,64.1,29.90,SSE,149,0.0,3.4,88,0.00,,,0.00,VWS V13.01,2013-09-01 04:01:00,
2013-09-01 00:06:00,67.6,64.3,29.90,SSE,160,0.0,0.0,89,0.00,,,0.00,VWS V13.01,2013-09-01 04:06:00,
2013-09-01 00:11:00,67.6,64.3,29.87,SE,133,0.0,0.0,89,0.00,,,0.00,VWS V13.01,2013-09-01 04:11:00,
2013-09-01 00:16:00,67.6,64.3,29.87,SE,138,0.0,3.4,89,0.00,,,0.00,VWS V13.01,2013-09-01 04:16:00,
2013-09-01 00:21:00,67.6,64.6,29.87,SE,145,0.0,3.9,90,0.00,,,0.00,VWS V13.01,2013-09-01 04:21:00,
2013-09-01 00:26:00,67.6,64.6,29.90,SSE,160,0.0,0.0,90,0.00,,,0.00,VWS V13.01,2013-09-01 04:26:00,
2013-09-01 00:31:00,67.5,64.8,29.90,South,170,0.0,0.0,91,0.00,,,0.00,VWS V13.01,2013-09-01 04:31:00,
2013-09-01 00:36:00,67.5,64.8,29.90,SSE,154,0.0,0.0,91,0.00,,,0.00,VWS V13.01,2013-09-01 04:36:00,
2013-09-01 00:41:00,67.5,65.1,29.87,SE,138,0.0,0.0,92,0.00,,,0.00,VWS V13.01,2013-09-01 04:41:00,
2013-09-01 00:46:00,67.5,65.1,29.87,SSE,168,0.0,2.8,92,0.00,,,0.00,VWS V13.01,2013-09-01 04:46:00,
2013-09-01 00:51:00,67.5,65.1,29.87,SW,231,0.0,0.0,92,0.00,,,0.00,VWS V13.01,2013-09-01 04:51:00,
2013-09-01 00:56:00,67.3,64.9,29.87,SW,231,0.0,0.0,92,0.00,,,0.00,VWS V13.01,2013-09-01 04:56:00,
2013-09-01 01:01:00,67.3,64.9,29.87,SW,231,0.0,0.0,92,0.00,,,0.00,VWS V13.01,2013-09-01 05:01:00,
2013-09-01 01:06:00,67.3,64.9,29.87,SW,231,0.0,0.0,92,0.00,,,0.00,VWS V13.01,2013-09-01 05:06:00,
2013-09-01 01:11:00,67.3,65.2,29.87,South,183,0.0,0.0,93,0.00,,,0.00,VWS V13.01,2013-09-01 05:11:00,
2013-09-01 01:16:00,67.3,65.2,29.87,South,182,0.0,0.0,93,0.00,,,0.00,VWS V13.01,2013-09-01 05:16:00,
2013-09-01 01:21:00,67.3,65.2,29.87,SSE,166,0.0,0.0,93,0.00,,,0.00,VWS V13.01,2013-09-01 05:21:00,
2013-09-01 01:26:00,67.1,65.0,29.90,SSE,166,0.0,0.0,93,0.00,,,0.00,VWS V13.01,2013-09-01 05:26:00,
2013-09-01 01:31:00,67.1,65.0,29.90,South,169,0.0,0.0,93,0.00,,,0.00,VWS V13.01,2013-09-01 05:31:00,
2013-09-01 01:36:00,67.1,65.0,29.90,South,187,0.0,0.0,93,0.00,,,0.00,VWS V13.01,2013-09-01 05:36:00,
2013-09-01 01:41:00,66.9,64.8,29.90,SW,225,0.0,0.0,93,0.00,,,0.00,VWS V13.01,2013-09-01 05:41:00,
2013-09-01 01:46:00,66.7,64.7,29.90,SW,225,0.0,0.0,93,0.00,,,0.00,VWS V13.01,2013-09-01 05:46:00,
2013-09-01 01:51:00,66.7,64.7,29.90,SW,225,0.0,0.0,93,0.00,,,0.00,VWS V13.01,2013-09-01 05:51:00,
2013-09-01 01:56:00,66.6,64.5,29.87,SW,225,0.0,0.0,93,0.00,,,0.00,VWS V13.01,2013-09-01 05:56:00,
2013-09-01 02:01:00,66.6,64.5,29.87,SW,225,0.0,0.0,93,0.00,,,0.00,VWS V13.01,2013-09-01 06:01:00,
2013-09-01 02:06:00,66.4,64.6,29.87,SW,225,0.0,0.0,94,0.00,,,0.00,VWS V13.01,2013-09-01 06:06:00,
2013-09-01 02:11:00,66.4,64.6,29.87,SW,225,0.0,0.0,94,0.00,,,0.00,VWS V13.01,2013-09-01 06:11:00,
2013-09-01 02:16:00,66.4,64.6,29.87,SW,225,0.0,0.0,94,0.00,,,0.00,VWS V13.01,2013-09-01 06:16:00,
2013-09-01 02:22:00,66.4,64.6,29.87,SSW,196,0.0,0.0,94,0.00,,,0.00,VWS V13.01,2013-09-01 06:22:00,
2013-09-01 02:27:00,66.4,64.9,29.87,SSW,195,0.0,0.0,95,0.00,,,0.00,VWS V13.01,2013-09-01 06:27:00,
2013-09-01 02:32:00,66.4,64.6,29.87,SSW,196,0.0,0.0,94,0.00,,,0.00,VWS V13.01,2013-09-01 06:32:00,
2013-09-01 02:37:00,66.4,64.6,29.87,SSW,196,0.0,0.0,94,0.00,,,0.00,VWS V13.01,2013-09-01 06:37:00,
2013-09-01 02:42:00,66.2,64.4,29.87,SSW,195,0.0,0.0,94,0.00,,,0.00,VWS V13.01,2013-09-01 06:42:00,
2013-09-01 02:47:00,66.0,64.2,29.87,SSW,195,0.0,0.0,94,0.00,,,0.00,VWS V13.01,2013-09-01 06:47:00,
2013-09-01 02:52:00,65.8,64.4,29.87,SSW,196,0.0,0.0,95,0.00,,,0.00,VWS V13.01,2013-09-01 06:52:00,
2013-09-01 02:57:00,65.7,64.2,29.87,SSW,196,0.0,0.0,95,0.00,,,0.00,VWS V13.01,2013-09-01 06:57:00,
2013-09-01 03:02:00,65.7,64.2,29.87,SSW,196,0.0,0.0,95,0.00,,,0.00,VWS V13.01,2013-09-01 07:02:00,
2013-09-01 03:07:00,65.5,64.0,29.87,SSW,196,0.0,0.0,95,0.00,,,0.00,VWS V13.01,2013-09-01 07:07:00,
2013-09-01 03:12:00,65.5,64.0,29.87,SSW,195,0.0,0.0,95,0.00,,,0.00,VWS V13.01,2013-09-01 07:12:00,
2013-09-01 03:17:00,65.5,64.0,29.87,SSW,196,0.0,0.0,95,0.00,,,0.00,VWS V13.01,2013-09-01 07:17:00,
2013-09-01 03:22:00,65.3,63.8,29.87,SSW,195,0.0,0.0,95,0.00,,,0.00,VWS V13.01,2013-09-01 07:22:00,
2013-09-01 03:27:00,65.3,63.8,29.87,SSW,195,0.0,0.0,95,0.00,,,0.00,VWS V13.01,2013-09-01 07:27:00,
2013-09-01 03:32:00,64.9,63.5,29.87,SSW,196,0.0,0.0,95,0.00,,,0.00,VWS V13.01,2013-09-01 07:32:00,
2013-09-01 03:37:00,64.8,63.0,29.87,SSW,196,0.0,0.0,94,0.00,,,0.00,VWS V13.01,2013-09-01 07:37:00,
2013-09-01 03:42:00,64.4,62.6,29.87,SSW,195,0.0,0.0,94,0.00,,,0.00,VWS V13.01,2013-09-01 07:42:00,
2013-09-01 03:47:00,64.2,62.8,29.87,SSW,195,0.0,0.0,95,0.00,,,0.00,VWS V13.01,2013-09-01 07:47:00,
2013-09-01 03:52:00,64.0,62.6,29.87,SSW,196,0.0,0.0,95,0.00,,,0.00,VWS V13.01,2013-09-01 07:52:00,
2013-09-01 03:57:00,63.9,62.4,29.84,SSW,196,0.0,0.0,95,0.00,,,0.00,VWS V13.01,2013-09-01 07:57:00,
2013-09-01 04:02:00,64.0,62.9,29.84,SSW,195,0.0,0.0,96,0.00,,,0.00,VWS V13.01,2013-09-01 08:02:00,
2013-09-01 04:07:00,64.2,63.3,29.84,SSW,196,0.0,0.0,97,0.00,,,0.00,VWS V13.01,2013-09-01 08:07:00,
2013-09-01 04:12:00,64.4,63.5,29.84,SSW,195,0.0,0.0,97,0.00,,,0.00,VWS V13.01,2013-09-01 08:12:00,
2013-09-01 04:17:00,64.6,63.7,29.84,SSW,196,0.0,0.0,97,0.00,,,0.00,VWS V13.01,2013-09-01 08:17:00,
2013-09-01 04:22:00,64.8,63.9,29.84,SSW,195,0.0,0.0,97,0.00,,,0.00,VWS V13.01,2013-09-01 08:22:00,
2013-09-01 04:26:00,64.8,63.9,29.84,SSW,196,0.0,0.0,97,0.00,,,0.00,VWS V13.01,2013-09-01 08:26:00,
2013-09-01 04:31:00,64.8,63.9,29.84,SSW,196,0.0,0.0,97,0.00,,,0.00,VWS V13.01,2013-09-01 08:31:00,
2013-09-01 04:36:00,64.8,63.9,29.84,SSW,196,0.0,0.0,97,0.00,,,0.00,VWS V13.01,2013-09-01 08:36:00,
2013-09-01 04:41:00,64.6,63.4,29.84,SSW,196,0.0,0.0,96,0.00,,,0.00,VWS V13.01,2013-09-01 08:41:00,
2013-09-01 04:46:00,64.6,63.4,29.84,SSW,195,0.0,0.0,96,0.00,,,0.00,VWS V13.01,2013-09-01 08:46:00,
2013-09-01 04:51:00,64.4,63.2,29.84,SSW,196,0.0,0.0,96,0.00,,,0.00,VWS V13.01,2013-09-01 08:51:00,
2013-09-01 04:56:00,64.4,63.2,29.84,SSW,195,0.0,0.0,96,0.00,,,0.00,VWS V13.01,2013-09-01 08:56:00,
2013-09-01 05:01:00,64.2,63.1,29.84,SSW,196,0.0,0.0,96,0.00,,,0.00,VWS V13.01,2013-09-01 09:01:00,
2013-09-01 05:06:00,64.2,63.3,29.84,SSW,196,0.0,0.0,97,0.00,,,0.00,VWS V13.01,2013-09-01 09:06:00,
2013-09-01 05:11:00,64.0,63.2,29.87,SSW,195,0.0,0.0,97,0.00,,,0.00,VWS V13.01,2013-09-01 09:11:00,
2013-09-01 05:16:00,64.0,63.2,29.87,SSW,196,0.0,0.0,97,0.00,,,0.00,VWS V13.01,2013-09-01 09:16:00,
2013-09-01 05:21:00,64.2,63.3,29.87,SSW,196,0.0,0.0,97,0.00,,,0.00,VWS V13.01,2013-09-01 09:21:00,
2013-09-01 05:26:00,64.0,63.2,29.87,SSW,196,0.0,0.0,97,0.00,,,0.00,VWS V13.01,2013-09-01 09:26:00,
2013-09-01 05:31:00,64.0,63.2,29.87,SSW,195,0.0,0.0,97,0.00,,,0.00,VWS V13.01,2013-09-01 09:31:00,
2013-09-01 05:36:00,64.0,63.2,29.87,SSW,195,0.0,0.0,97,0.00,,,0.00,VWS V13.01,2013-09-01 09:36:00,
2013-09-01 05:41:00,64.0,63.2,29.87,SSW,195,0.0,0.0,97,0.00,,,0.00,VWS V13.01,2013-09-01 09:41:00,
2013-09-01 05:46:00,64.0,63.2,29.87,SSW,196,0.0,0.0,97,0.00,,,0.00,VWS V13.01,2013-09-01 09:46:00,
2013-09-01 05:51:00,63.9,63.0,29.87,SSW,196,0.0,0.0,97,0.00,,,0.00,VWS V13.01,2013-09-01 09:51:00,
2013-09-01 05:56:00,63.9,63.0,29.87,SSW,196,0.0,0.0,97,0.00,,,0.00,VWS V13.01,2013-09-01 09:56:00,
2013-09-01 06:01:00,63.7,62.8,29.87,SSW,196,0.0,0.0,97,0.00,,,0.00,VWS V13.01,2013-09-01 10:01:00,
2013-09-01 06:06:00,63.5,62.6,29.87,SSW,195,0.0,0.0,97,0.00,,,0.00,VWS V13.01,2013-09-01 10:06:00,
2013-09-01 06:11:00,63.5,62.9,29.87,SSW,195,0.0,0.0,98,0.00,,,0.00,VWS V13.01,2013-09-01 10:11:00,
2013-09-01 06:16:00,63.5,62.9,29.87,SSW,196,0.0,0.0,98,0.00,,,0.00,VWS V13.01,2013-09-01 10:16:00,
2013-09-01 06:21:00,63.5,62.9,29.87,SSW,196,0.0,0.0,98,0.00,,,0.00,VWS V13.01,2013-09-01 10:21:00,
2013-09-01 06:26:00,63.5,62.9,29.87,SSW,195,0.0,0.0,98,0.00,,,0.00,VWS V13.01,2013-09-01 10:26:00,
2013-09-01 06:31:00,63.5,62.9,29.87,SSW,196,0.0,0.0,98,0.00,,,0.00,VWS V13.01,2013-09-01 10:31:00,
2013-09-01 06:36:00,63.5,62.9,29.87,SSW,195,0.0,0.0,98,0.00,,,0.00,VWS V13.01,2013-09-01 10:36:00,
2013-09-01 06:41:00,63.5,62.9,29.87,SSW,195,0.0,0.0,98,0.00,,,0.00,VWS V13.01,2013-09-01 10:41:00,
2013-09-01 06:46:00,63.5,62.9,29.87,SSW,210,0.0,0.0,98,0.00,,,0.00,VWS V13.01,2013-09-01 10:46:00,
2013-09-01 06:51:00,63.5,62.9,29.87,SSW,210,0.0,0.0,98,0.00,,,0.00,VWS V13.01,2013-09-01 10:51:00,
2013-09-01 06:56:00,63.3,62.8,29.87,SSW,210,0.0,0.0,98,0.00,,,0.00,VWS V13.01,2013-09-01 10:56:00,
2013-09-01 07:01:00,63.3,62.8,29.87,SSW,210,0.0,0.0,98,0.00,,,0.00,VWS V13.01,2013-09-01 11:01:00,
2013-09-01 07:06:00,63.5,63.2,29.87,SSW,210,0.0,0.0,99,0.00,,,0.00,VWS V13.01,2013-09-01 11:06:00,
2013-09-01 07:11:00,63.5,63.2,29.87,SSW,210,0.0,0.0,99,0.00,,,0.00,VWS V13.01,2013-09-01 11:11:00,
2013-09-01 07:16:00,63.7,63.4,29.87,SSW,210,0.0,0.0,99,0.00,,,0.00,VWS V13.01,2013-09-01 11:16:00,
2013-09-01 07:21:00,63.9,63.6,29.87,SSW,210,0.0,0.0,99,0.00,,,0.00,VWS V13.01,2013-09-01 11:21:00,
2013-09-01 07:26:00,64.0,63.8,29.87,SSW,210,0.0,0.0,99,0.00,,,0.00,VWS V13.01,2013-09-01 11:26:00,
2013-09-01 07:31:00,64.2,64.2,29.87,SSW,210,0.0,0.0,100,0.00,,,0.00,VWS V13.01,2013-09-01 11:31:00,
2013-09-01 07:36:00,64.2,64.2,29.87,SSW,210,0.0,0.0,100,0.00,,,0.00,VWS V13.01,2013-09-01 11:36:00,
2013-09-01 07:41:00,64.4,64.1,29.87,SSW,210,0.0,0.0,99,0.00,,,0.00,VWS V13.01,2013-09-01 11:41:00,
2013-09-01 07:46:00,64.6,64.3,29.87,SSW,210,0.0,0.0,99,0.00,,,0.00,VWS V13.01,2013-09-01 11:46:00,
2013-09-01 07:51:00,64.8,64.5,29.87,SSW,210,0.0,0.0,99,0.00,,,0.00,VWS V13.01,2013-09-01 11:51:00,
2013-09-01 07:56:00,64.8,64.5,29.87,SSW,210,0.0,0.0,99,0.00,,,0.00,VWS V13.01,2013-09-01 11:56:00,
2013-09-01 08:01:00,65.1,64.8,29.87,SSW,210,0.0,0.0,99,0.00,,,0.00,VWS V13.01,2013-09-01 12:01:00,
2013-09-01 08:06:00,65.3,65.0,29.87,SSW,210,0.0,0.0,99,0.00,,,0.00,VWS V13.01,2013-09-01 12:06:00,
2013-09-01 08:11:00,65.3,65.0,29.90,SSW,210,0.0,0.0,99,0.00,,,0.00,VWS V13.01,2013-09-01 12:11:00,
2013-09-01 08:16:00,65.3,64.7,29.90,SSW,210,0.0,0.0,98,0.00,,,0.00,VWS V13.01,2013-09-01 12:16:00,
2013-09-01 08:21:00,65.7,65.4,29.90,SSW,210,0.0,0.0,99,0.00,,,0.00,VWS V13.01,2013-09-01 12:21:00,
2013-09-01 08:31:00,65.8,65.6,29.90,ESE,113,0.0,0.0,99,0.00,,,0.00,VWS V13.01,2013-09-01 12:31:00,
2013-09-01 08:36:00,66.0,65.7,29.90,ESE,115,0.0,0.0,99,0.00,,,0.00,VWS V13.01,2013-09-01 12:36:00,
2013-09-01 08:41:00,66.2,65.9,29.90,ESE,119,0.0,0.0,99,0.00,,,0.00,VWS V13.01,2013-09-01 12:41:00,
2013-09-01 08:46:00,66.4,65.8,29.90,SE,140,0.0,0.0,98,0.00,,,0.00,VWS V13.01,2013-09-01 12:46:00,
2013-09-01 08:51:00,66.7,66.2,29.90,SE,140,0.0,0.0,98,0.00,,,0.00,VWS V13.01,2013-09-01 12:51:00,
2013-09-01 08:56:00,67.5,67.2,29.90,SW,218,0.0,0.0,99,0.00,,CLR,0.00,VWS V13.01,2013-09-01 12:56:00,
2013-09-01 09:01:00,67.8,67.5,29.90,West,261,0.0,3.4,99,0.00,,CLR,0.00,VWS V13.01,2013-09-01 13:01:00,
2013-09-01 09:06:00,68.7,68.1,29.90,West,267,0.0,0.0,98,0.00,,CLR,0.00,VWS V13.01,2013-09-01 13:06:00,
2013-09-01 09:11:00,69.4,68.8,29.90,South,188,0.0,0.0,98,0.00,,CLR,0.00,VWS V13.01,2013-09-01 13:11:00,
2013-09-01 09:15:00,69.3,68.7,29.90,SSE,159,0.0,0.0,98,0.00,,SCT070,0.00,VWS V13.01,2013-09-01 13:15:00,
2013-09-01 09:20:00,69.1,68.5,29.90,SSE,159,0.0,0.0,98,0.00,,SCT070,0.00,VWS V13.01,2013-09-01 13:20:00,
2013-09-01 09:25:00,69.1,68.8,29.90,SE,131,0.0,0.0,99,0.00,,SCT070,0.00,VWS V13.01,2013-09-01 13:25:00,
2013-09-01 09:30:00,69.3,69.3,29.90,SSE,149,0.0,0.0,100,0.00,,SCT070,0.00,VWS V13.01,2013-09-01 13:30:00,
2013-09-01 09:35:00,69.4,69.4,29.90,SSE,150,0.0,0.0,100,0.00,,BKN070,0.00,VWS V13.01,2013-09-01 13:35:00,
2013-09-01 09:40:00,69.4,69.4,29.90,SSE,150,0.0,0.0,100,0.00,,BKN070,0.00,VWS V13.01,2013-09-01 13:40:00,
2013-09-01 09:45:00,69.6,69.6,29.90,SSE,150,0.0,0.0,100,0.00,,BKN070,0.00,VWS V13.01,2013-09-01 13:45:00,
2013-09-01 09:50:00,70.2,70.2,29.90,SSE,150,0.0,0.0,100,0.00,,BKN070,0.00,VWS V13.01,2013-09-01 13:50:00,
2013-09-01 09:55:00,70.9,70.9,29.90,South,189,0.0,0.0,100,0.00,,OVC080,0.00,VWS V13.01,2013-09-01 13:55:00,
2013-09-01 10:00:00,72.1,72.2,29.90,SE,127,0.0,5.0,100,0.00,,OVC080,0.00,VWS V13.01,2013-09-01 14:00:00,
2013-09-01 10:05:00,72.5,72.5,29.90,SSE,161,0.0,3.9,100,0.00,,OVC080,0.00,VWS V13.01,2013-09-01 14:05:00,
2013-09-01 10:10:00,73.0,72.1,29.90,SE,130,0.0,4.5,97,0.00,,OVC080,0.00,VWS V13.01,2013-09-01 14:10:00,
2013-09-01 10:15:00,73.8,70.0,29.90,SW,231,0.0,0.0,88,0.00,,OVC090,0.00,VWS V13.01,2013-09-01 14:15:00,
2013-09-01 10:20:00,73.8,69.0,29.90,SE,139,5.0,5.0,85,0.00,,OVC090,0.00,VWS V13.01,2013-09-01 14:20:00,
2013-09-01 10:25:00,74.5,69.0,29.90,SE,128,4.5,4.5,83,0.00,,OVC090,0.00,VWS V13.01,2013-09-01 14:25:00,
2013-09-01 10:30:00,75.2,67.1,29.90,SW,234,2.8,2.8,76,0.00,,OVC090,0.00,VWS V13.01,2013-09-01 14:30:00,
2013-09-01 10:35:00,76.1,65.6,29.90,SE,134,4.5,4.5,70,0.00,,BKN085,0.00,VWS V13.01,2013-09-01 14:35:00,
2013-09-01 10:40:00,76.8,66.3,29.90,SSE,148,0.0,0.0,70,0.00,,BKN085,0.00,VWS V13.01,2013-09-01 14:40:00,
2013-09-01 10:45:00,77.2,65.4,29.90,SE,129,3.4,5.0,67,0.00,,BKN085,0.00,VWS V13.01,2013-09-01 14:45:00,
2013-09-01 10:50:00,77.5,66.2,29.90,East,96,0.0,3.9,68,0.00,,BKN085,0.00,VWS V13.01,2013-09-01 14:50:00,
2013-09-01 10:55:00,78.3,64.2,29.90,SW,224,0.0,0.0,62,0.00,,BKN085,0.00,VWS V13.01,2013-09-01 14:55:00,
2013-09-01 11:00:00,78.8,64.7,29.90,SE,125,3.9,3.9,62,0.00,,BKN085,0.00,VWS V13.01,2013-09-01 15:00:00,
2013-09-01 11:05:00,79.2,63.6,29.90,WSW,257,0.0,2.8,59,0.00,,BKN085,0.00,VWS V13.01,2013-09-01 15:05:00,
2013-09-01 11:10:00,79.3,64.3,29.90,South,173,0.0,4.5,60,0.00,,BKN085,0.00,VWS V13.01,2013-09-01 15:10:00,
2013-09-01 11:15:00,79.5,64.0,29.90,SSE,148,3.4,3.4,59,0.00,,BKN075,0.00,VWS V13.01,2013-09-01 15:15:00,
2013-09-01 11:20:00,79.3,63.3,29.90,SE,145,3.4,3.9,58,0.00,,BKN075,0.00,VWS V13.01,2013-09-01 15:20:00,
2013-09-01 11:25:00,79.9,63.3,29.90,SE,130,2.8,5.0,57,0.00,,BKN075,0.00,VWS V13.01,2013-09-01 15:25:00,
2013-09-01 11:30:00,80.4,64.3,29.90,ESE,114,0.0,0.0,58,0.00,,BKN075,0.00,VWS V13.01,2013-09-01 15:30:00,
2013-09-01 11:35:00,80.8,63.1,29.90,WSW,256,4.5,5.0,55,0.00,,SCT090,0.00,VWS V13.01,2013-09-01 15:35:00,
2013-09-01 11:40:00,81.0,62.8,29.90,West,260,3.9,5.0,54,0.00,,SCT090,0.00,VWS V13.01,2013-09-01 15:40:00,
2013-09-01 11:45:00,80.4,62.8,29.90,SSE,158,4.5,4.5,55,0.00,,SCT090,0.00,VWS V13.01,2013-09-01 15:45:00,
2013-09-01 11:50:00,80.2,62.6,29.90,SSE,151,2.8,5.0,55,0.00,,SCT090,0.00,VWS V13.01,2013-09-01 15:50:00,
2013-09-01 11:55:00,80.4,62.8,29.90,SSE,160,0.0,3.4,55,0.00,,SCT100,0.00,VWS V13.01,2013-09-01 15:55:00,
2013-09-01 12:00:00,80.4,62.8,29.90,SE,135,3.9,5.0,55,0.00,,SCT100,0.00,VWS V13.01,2013-09-01 16:00:00,
2013-09-01 12:05:00,80.6,63.0,29.90,South,177,3.9,3.9,55,0.00,,SCT100,0.00,VWS V13.01,2013-09-01 16:05:00,
2013-09-01 12:10:00,80.8,62.1,29.90,South,173,3.4,3.4,53,0.00,,SCT100,0.00,VWS V13.01,2013-09-01 16:10:00,
2013-09-01 12:15:00,81.0,61.2,29.87,West,266,0.0,2.8,51,0.00,,SCT100,0.00,VWS V13.01,2013-09-01 16:15:00,
2013-09-01 12:20:00,81.7,63.4,29.87,SSE,147,0.0,0.0,54,0.00,,SCT100,0.00,VWS V13.01,2013-09-01 16:20:00,
2013-09-01 12:25:00,82.6,63.7,29.87,West,266,4.5,6.7,53,0.00,,SCT100,0.00,VWS V13.01,2013-09-01 16:25:00,
2013-09-01 12:30:00,83.5,62.3,29.87,NW,308,3.9,6.2,49,0.00,,SCT100,0.00,VWS V13.01,2013-09-01 16:30:00,
2013-09-01 12:35:00,83.5,61.2,29.87,North,350,0.0,0.0,47,0.00,,CLR,0.00,VWS V13.01,2013-09-01 16:35:00,
2013-09-01 12:40:00,83.3,61.0,29.87,West,266,3.9,3.9,47,0.00,,CLR,0.00,VWS V13.01,2013-09-01 16:40:00,
2013-09-01 12:45:00,83.1,60.8,29.87,ESE,123,4.5,5.0,47,0.00,,CLR,0.00,VWS V13.01,2013-09-01 16:45:00,
2013-09-01 12:50:00,82.9,60.7,29.87,SE,124,0.0,6.2,47,0.00,,CLR,0.00,VWS V13.01,2013-09-01 16:50:00,
2013-09-01 12:55:00,83.3,61.0,29.87,SE,144,2.8,4.5,47,0.00,,BKN110,0.00,VWS V13.01,2013-09-01 16:55:00,
2013-09-01 13:00:00,83.5,61.8,29.87,South,171,2.8,4.5,48,0.00,,BKN110,0.00,VWS V13.01,2013-09-01 17:00:00,
2013-09-01 13:05:00,83.7,61.9,29.87,ESE,114,5.0,5.0,48,0.00,,BKN110,0.00,VWS V13.01,2013-09-01 17:05:00,
2013-09-01 13:10:00,84.6,62.1,29.87,SSE,165,3.9,4.5,47,0.00,,BKN110,0.00,VWS V13.01,2013-09-01 17:10:00,
2013-09-01 13:15:00,85.1,61.4,29.87,WSW,253,3.9,6.2,45,0.00,,SCT110,0.00,VWS V13.01,2013-09-01 17:15:00,
2013-09-01 13:20:00,85.1,61.4,29.87,SSE,150,0.0,0.0,45,0.00,,SCT110,0.00,VWS V13.01,2013-09-01 17:20:00,
2013-09-01 13:25:00,84.9,61.8,29.87,WSW,246,6.2,6.2,46,0.00,,SCT110,0.00,VWS V13.01,2013-09-01 17:25:00,
2013-09-01 13:30:00,84.6,61.5,29.87,WSW,249,5.0,6.7,46,0.00,,SCT110,0.00,VWS V13.01,2013-09-01 17:30:00,
2013-09-01 13:35:00,84.0,61.0,29.87,WSW,251,5.0,5.0,46,0.00,,BKN080,0.00,VWS V13.01,2013-09-01 17:35:00,
2013-09-01 13:40:00,83.5,61.2,29.87,SSW,197,4.5,4.5,47,0.00,,BKN080,0.00,VWS V13.01,2013-09-01 17:40:00,
2013-09-01 13:45:00,83.8,62.1,29.87,West,260,3.4,5.0,48,0.00,,BKN080,0.00,VWS V13.01,2013-09-01 17:45:00,
2013-09-01 13:50:00,84.6,62.7,29.87,WNW,282,3.4,5.0,48,0.00,,BKN080,0.00,VWS V13.01,2013-09-01 17:50:00,
2013-09-01 13:55:00,85.5,63.0,29.87,WSW,247,3.9,4.5,47,0.00,,BKN110,0.00,VWS V13.01,2013-09-01 17:55:00,
2013-09-01 14:00:00,85.6,61.9,29.87,West,278,6.2,7.8,45,0.00,,BKN110,0.00,VWS V13.01,2013-09-01 18:00:00,
2013-09-01 14:05:00,85.5,62.3,29.87,WSW,255,0.0,2.8,46,0.00,,BKN110,0.00,VWS V13.01,2013-09-01 18:05:00,
2013-09-01 14:10:00,85.3,61.6,29.87,North,357,5.0,5.0,45,0.00,,BKN110,0.00,VWS V13.01,2013-09-01 18:10:00,
2013-09-01 14:15:00,84.7,61.7,29.87,North,2,2.8,5.0,46,0.00,,BKN110,0.00,VWS V13.01,2013-09-01 18:15:00,
2013-09-01 14:20:00,84.6,61.5,29.87,West,261,3.9,4.5,46,0.00,,BKN110,0.00,VWS V13.01,2013-09-01 18:20:00,
2013-09-01 14:25:00,84.2,60.6,29.87,West,263,3.4,3.9,45,0.00,,BKN110,0.00,VWS V13.01,2013-09-01 18:25:00,
2013-09-01 14:30:00,84.0,61.0,29.87,West,267,0.0,0.0,46,0.00,,BKN110,0.00,VWS V13.01,2013-09-01 18:30:00,
2013-09-01 14:35:00,84.6,62.1,29.87,WNW,288,0.0,3.4,47,0.00,,BKN070,0.00,VWS V13.01,2013-09-01 18:35:00,
2013-09-01 14:40:00,85.8,63.9,29.87,West,266,4.5,5.0,48,0.00,,BKN070,0.00,VWS V13.01,2013-09-01 18:40:00,
2013-09-01 14:45:00,86.5,63.3,29.84,West,260,3.9,5.0,46,0.00,,BKN070,0.00,VWS V13.01,2013-09-01 18:45:00,
2013-09-01 14:50:00,86.9,63.7,29.84,West,264,3.4,5.0,46,0.00,,BKN070,0.00,VWS V13.01,2013-09-01 18:50:00,
2013-09-01 14:55:00,87.1,63.2,29.84,South,180,3.9,7.8,45,0.00,,OVC070,0.00,VWS V13.01,2013-09-01 18:55:00,
2013-09-01 15:00:00,86.7,62.2,29.84,SSW,207,3.9,5.0,44,0.00,,OVC070,0.00,VWS V13.01,2013-09-01 19:00:00,
2013-09-01 15:05:00,86.4,61.9,29.84,WSW,254,3.4,6.7,44,0.00,,OVC070,0.00,VWS V13.01,2013-09-01 19:05:00,
2013-09-01 15:10:00,86.0,61.6,29.84,West,277,0.0,3.9,44,0.00,,OVC070,0.00,VWS V13.01,2013-09-01 19:10:00,
2013-09-01 15:15:00,85.6,61.9,29.84,West,262,3.4,4.5,45,0.00,,SCT070,0.00,VWS V13.01,2013-09-01 19:15:00,
2013-09-01 15:20:00,85.3,60.9,29.84,SW,217,0.0,3.4,44,0.00,,SCT070,0.00,VWS V13.01,2013-09-01 19:20:00,
2013-09-01 15:25:00,84.9,61.2,29.84,South,178,5.0,5.0,45,0.00,,SCT070,0.00,VWS V13.01,2013-09-01 19:25:00,
2013-09-01 15:30:00,84.4,60.7,29.84,WSW,241,3.4,3.9,45,0.00,,SCT070,0.00,VWS V13.01,2013-09-01 19:30:00,
2013-09-01 15:35:00,84.0,60.4,29.84,SSW,210,2.8,3.4,45,0.00,,SCT060,0.00,VWS V13.01,2013-09-01 19:35:00,
2013-09-01 15:40:00,83.7,60.7,29.84,SSW,202,0.0,0.0,46,0.00,,SCT060,0.00,VWS V13.01,2013-09-01 19:40:00,
2013-09-01 15:45:00,83.3,60.4,29.84,West,259,0.0,4.5,46,0.00,,SCT060,0.00,VWS V13.01,2013-09-01 19:45:00,
2013-09-01 15:50:00,83.1,60.2,29.84,SW,215,0.0,3.9,46,0.00,,SCT060,0.00,VWS V13.01,2013-09-01 19:50:00,
2013-09-01 15:55:00,83.1,61.4,29.84,South,179,0.0,0.0,48,0.00,,OVC120,0.00,VWS V13.01,2013-09-01 19:55:00,
2013-09-01 16:00:00,82.8,61.7,29.84,SW,227,0.0,4.5,49,0.00,,OVC120,0.00,VWS V13.01,2013-09-01 20:00:00,
2013-09-01 16:05:00,82.0,62.7,29.84,SW,227,4.5,4.5,52,0.00,,OVC120,0.00,VWS V13.01,2013-09-01 20:05:00,
2013-09-01 16:10:00,80.6,61.4,29.84,SSE,147,4.5,10.1,52,0.00,,OVC120,0.00,VWS V13.01,2013-09-01 20:10:00,
2013-09-01 16:15:00,78.6,60.1,29.84,WSW,256,6.2,8.4,53,0.00,,RA,0.00,VWS V13.01,2013-09-01 20:15:00,
2013-09-01 16:20:00,76.8,60.0,29.84,South,181,3.9,10.3,56,0.00,,RA,0.00,VWS V13.01,2013-09-01 20:20:00,
2013-09-01 16:25:00,75.7,59.0,29.84,SSW,211,4.5,7.8,56,0.00,,RA,0.00,VWS V13.01,2013-09-01 20:25:00,
2013-09-01 16:30:00,75.0,58.3,29.84,WSW,255,5.0,6.2,56,0.00,,RA,0.00,VWS V13.01,2013-09-01 20:30:00,
2013-09-01 16:35:00,74.5,57.8,29.84,WSW,250,3.4,7.3,56,0.00,,-RA,0.00,VWS V13.01,2013-09-01 20:35:00,
2013-09-01 16:40:00,73.9,57.8,29.84,WSW,258,2.8,5.0,57,0.00,,-RA,0.00,VWS V13.01,2013-09-01 20:40:00,
2013-09-01 16:45:00,73.0,57.9,29.84,SSE,160,3.4,3.4,59,0.01,,-RA,0.01,VWS V13.01,2013-09-01 20:45:00,
2013-09-01 16:50:00,72.3,58.1,29.84,West,269,4.5,5.0,61,0.01,,-RA,0.01,VWS V13.01,2013-09-01 20:50:00,
2013-09-01 16:55:00,72.0,58.2,29.84,West,269,0.0,0.0,62,0.02,,-RA,0.02,VWS V13.01,2013-09-01 20:55:00,
2013-09-01 17:00:00,72.0,60.0,29.84,West,269,0.0,0.0,66,0.02,,-RA,0.02,VWS V13.01,2013-09-01 21:00:00,
2013-09-01 17:05:00,72.0,60.0,29.84,North,2,3.4,3.4,66,0.02,,-RA,0.02,VWS V13.01,2013-09-01 21:05:00,
2013-09-01 17:10:00,72.1,60.6,29.81,North,2,0.0,0.0,67,0.02,,-RA,0.02,VWS V13.01,2013-09-01 21:10:00,
2013-09-01 17:15:00,72.3,63.2,29.81,WSW,252,2.8,5.0,73,0.02,,OVC120,0.02,VWS V13.01,2013-09-01 21:15:00,
2013-09-01 17:20:00,72.1,62.6,29.81,SW,216,0.0,0.0,72,0.03,,OVC120,0.03,VWS V13.01,2013-09-01 21:20:00,
2013-09-01 17:25:00,72.1,62.6,29.84,West,277,2.8,4.5,72,0.03,,OVC120,0.03,VWS V13.01,2013-09-01 21:25:00,
2013-09-01 17:30:00,72.3,63.2,29.84,West,262,0.0,5.0,73,0.03,,OVC120,0.03,VWS V13.01,2013-09-01 21:30:00,
2013-09-01 17:35:00,72.7,63.5,29.84,WSW,249,2.8,3.9,73,0.03,,-RA,0.03,VWS V13.01,2013-09-01 21:35:00,
2013-09-01 17:40:00,72.7,63.5,29.84,West,272,0.0,0.0,73,0.03,,-RA,0.03,VWS V13.01,2013-09-01 21:40:00,
2013-09-01 17:45:00,72.9,64.1,29.84,WSW,256,3.4,3.4,74,0.02,,-RA,0.03,VWS V13.01,2013-09-01 21:45:00,
2013-09-01 17:50:00,72.7,63.9,29.84,WSW,258,0.0,0.0,74,0.02,,-RA,0.03,VWS V13.01,2013-09-01 21:50:00,
2013-09-01 17:55:00,72.7,63.5,29.81,WSW,258,0.0,0.0,73,0.02,,OVC110,0.03,VWS V13.01,2013-09-01 21:55:00,
2013-09-01 18:00:00,72.7,63.9,29.81,WSW,258,0.0,0.0,74,0.01,,OVC110,0.03,VWS V13.01,2013-09-01 22:00:00,
2013-09-01 18:05:00,72.7,63.5,29.81,WSW,258,0.0,0.0,73,0.01,,OVC110,0.03,VWS V13.01,2013-09-01 22:05:00,
2013-09-01 18:10:00,72.7,63.5,29.81,WSW,258,0.0,0.0,73,0.01,,OVC110,0.03,VWS V13.01,2013-09-01 22:10:00,
2013-09-01 18:15:00,72.9,64.1,29.81,WSW,258,0.0,0.0,74,0.01,,SCT110,0.03,VWS V13.01,2013-09-01 22:15:00,
2013-09-01 18:20:00,72.9,64.1,29.81,WSW,258,0.0,0.0,74,0.00,,SCT110,0.03,VWS V13.01,2013-09-01 22:20:00,
2013-09-01 18:25:00,72.9,64.1,29.81,SW,232,0.0,0.0,74,0.00,,SCT110,0.03,VWS V13.01,2013-09-01 22:25:00,
2013-09-01 18:30:00,72.9,63.7,29.84,SW,220,0.0,0.0,73,0.00,,SCT110,0.03,VWS V13.01,2013-09-01 22:30:00,
2013-09-01 18:35:00,72.9,64.1,29.84,SW,220,0.0,0.0,74,0.00,,SCT120,0.03,VWS V13.01,2013-09-01 22:35:00,
2013-09-01 18:40:00,72.9,64.1,29.84,East,93,0.0,0.0,74,0.00,,SCT120,0.03,VWS V13.01,2013-09-01 22:40:00,
2013-09-01 18:45:00,72.9,64.1,29.84,East,93,0.0,0.0,74,0.00,,SCT120,0.03,VWS V13.01,2013-09-01 22:45:00,
2013-09-01 18:50:00,72.9,64.1,29.84,East,93,0.0,0.0,74,0.00,,SCT120,0.03,VWS V13.01,2013-09-01 22:50:00,
2013-09-01 18:55:00,72.9,64.1,29.81,SSE,151,0.0,0.0,74,0.00,,SCT120,0.03,VWS V13.01,2013-09-01 22:55:00,
2013-09-01 19:00:00,72.7,64.3,29.81,SSE,151,0.0,0.0,75,0.00,,SCT120,0.03,VWS V13.01,2013-09-01 23:00:00,
2013-09-01 19:05:00,72.7,64.3,29.81,SSE,150,0.0,0.0,75,0.00,,SCT120,0.03,VWS V13.01,2013-09-01 23:05:00,
2013-09-01 19:11:00,72.5,64.5,29.81,SSE,150,0.0,0.0,76,0.00,,SCT120,0.03,VWS V13.01,2013-09-01 23:11:00,
2013-09-01 19:16:00,72.5,64.5,29.81,SSE,150,0.0,0.0,76,0.00,,CLR,0.03,VWS V13.01,2013-09-01 23:16:00,
2013-09-01 19:21:00,72.5,64.9,29.81,SSE,150,0.0,0.0,77,0.00,,CLR,0.03,VWS V13.01,2013-09-01 23:21:00,
2013-09-01 19:26:00,72.3,64.7,29.81,SSE,150,0.0,0.0,77,0.00,,CLR,0.03,VWS V13.01,2013-09-01 23:26:00,
2013-09-01 19:31:00,72.1,64.5,29.84,SSE,150,0.0,0.0,77,0.00,,CLR,0.03,VWS V13.01,2013-09-01 23:31:00,
2013-09-01 19:36:00,72.0,64.4,29.84,SSE,151,0.0,0.0,77,0.00,,CLR,0.03,VWS V13.01,2013-09-01 23:36:00,
2013-09-01 19:41:00,72.0,64.7,29.84,SSE,151,0.0,0.0,78,0.00,,CLR,0.03,VWS V13.01,2013-09-01 23:41:00,
2013-09-01 19:46:00,71.8,64.6,29.84,SSE,151,0.0,0.0,78,0.00,,CLR,0.03,VWS V13.01,2013-09-01 23:46:00,
2013-09-01 19:51:00,71.6,64.4,29.84,SSE,151,0.0,0.0,78,0.00,,CLR,0.03,VWS V13.01,2013-09-01 23:51:00,
2013-09-01 19:56:00,71.4,64.6,29.84,SSE,151,0.0,0.0,79,0.00,,SCT100,0.03,VWS V13.01,2013-09-01 23:56:00,
2013-09-01 20:01:00,71.4,64.6,29.81,SSE,151,0.0,0.0,79,0.00,,SCT100,0.03,VWS V13.01,2013-09-02 00:01:00,
2013-09-01 20:06:00,71.2,64.4,29.81,SSE,151,0.0,0.0,79,0.00,,SCT100,0.03,VWS V13.01,2013-09-02 00:06:00,
2013-09-01 20:11:00,71.4,64.9,29.81,SSE,151,0.0,0.0,80,0.00,,SCT100,0.03,VWS V13.01,2013-09-02 00:11:00,
2013-09-01 20:16:00,71.2,64.8,29.84,SSE,151,0.0,0.0,80,0.00,,CLR,0.03,VWS V13.01,2013-09-02 00:16:00,
2013-09-01 20:21:00,71.2,64.8,29.84,SSE,151,0.0,0.0,80,0.00,,CLR,0.03,VWS V13.01,2013-09-02 00:21:00,
2013-09-01 20:26:00,71.1,64.9,29.84,SSE,151,0.0,0.0,81,0.00,,CLR,0.03,VWS V13.01,2013-09-02 00:26:00,
2013-09-01 20:31:00,71.1,64.9,29.84,SSE,151,0.0,0.0,81,0.00,,CLR,0.03,VWS V13.01,2013-09-02 00:31:00,
2013-09-01 20:36:00,71.1,65.3,29.84,SSE,151,0.0,0.0,82,0.00,,SCT110,0.03,VWS V13.01,2013-09-02 00:36:00,
2013-09-01 20:41:00,70.9,65.8,29.84,SSE,151,0.0,0.0,84,0.00,,SCT110,0.03,VWS V13.01,2013-09-02 00:41:00,
2013-09-01 20:46:00,70.9,66.2,29.84,SSE,151,0.0,0.0,85,0.00,,SCT110,0.03,VWS V13.01,2013-09-02 00:46:00,
2013-09-01 20:51:00,70.9,66.2,29.84,SSE,151,0.0,0.0,85,0.00,,SCT110,0.03,VWS V13.01,2013-09-02 00:51:00,
2013-09-01 20:56:00,70.9,66.2,29.84,SE,141,0.0,0.0,85,0.00,,SCT110,0.03,VWS V13.01,2013-09-02 00:56:00,
2013-09-01 21:01:00,70.9,66.5,29.84,SE,141,0.0,0.0,86,0.00,,OVC110,0.03,VWS V13.01,2013-09-02 01:01:00,
2013-09-01 21:06:00,70.9,66.5,29.84,SE,141,0.0,0.0,86,0.00,,OVC110,0.03,VWS V13.01,2013-09-02 01:06:00,
2013-09-01 21:11:00,70.9,66.8,29.84,SE,141,0.0,0.0,87,0.00,,OVC110,0.03,VWS V13.01,2013-09-02 01:11:00,
2013-09-01 21:16:00,71.1,67.0,29.84,SE,141,0.0,0.0,87,0.00,,-RA,0.03,VWS V13.01,2013-09-02 01:16:00,
2013-09-01 21:21:00,71.1,67.0,29.84,SE,141,0.0,0.0,87,0.00,,-RA,0.03,VWS V13.01,2013-09-02 01:21:00,
2013-09-01 21:26:00,71.1,67.0,29.84,SE,141,0.0,0.0,87,0.00,,-RA,0.03,VWS V13.01,2013-09-02 01:26:00,
2013-09-01 21:31:00,70.9,66.8,29.84,SE,141,0.0,0.0,87,0.00,,-RA,0.03,VWS V13.01,2013-09-02 01:31:00,
2013-09-01 21:36:00,70.9,66.8,29.84,SE,141,0.0,0.0,87,0.00,,BKN120,0.03,VWS V13.01,2013-09-02 01:36:00,
2013-09-01 21:41:00,70.7,66.7,29.84,SE,141,0.0,0.0,87,0.00,,BKN120,0.03,VWS V13.01,2013-09-02 01:41:00,
2013-09-01 21:46:00,70.7,67.0,29.84,SE,141,0.0,0.0,88,0.00,,BKN120,0.03,VWS V13.01,2013-09-02 01:46:00,
2013-09-01 21:51:00,70.7,67.0,29.84,SE,141,0.0,0.0,88,0.00,,BKN120,0.03,VWS V13.01,2013-09-02 01:51:00,
2013-09-01 21:56:00,70.7,67.0,29.84,SE,141,0.0,0.0,88,0.00,,,0.03,VWS V13.01,2013-09-02 01:56:00,
2013-09-01 22:01:00,70.7,67.3,29.84,SE,141,0.0,0.0,89,0.00,,,0.03,VWS V13.01,2013-09-02 02:01:00,
2013-09-01 22:06:00,70.7,67.3,29.84,SE,141,0.0,0.0,89,0.00,,,0.03,VWS V13.01,2013-09-02 02:06:00,
2013-09-01 22:11:00,70.5,67.1,29.84,SE,141,0.0,0.0,89,0.00,,,0.03,VWS V13.01,2013-09-02 02:11:00,
2013-09-01 22:16:00,70.5,67.1,29.84,SE,141,0.0,0.0,89,0.00,,CLR,0.03,VWS V13.01,2013-09-02 02:16:00,
2013-09-01 22:21:00,70.7,67.6,29.84,SE,141,0.0,0.0,90,0.00,,CLR,0.03,VWS V13.01,2013-09-02 02:21:00,
2013-09-01 22:26:00,70.7,67.6,29.84,SE,141,0.0,0.0,90,0.00,,CLR,0.03,VWS V13.01,2013-09-02 02:26:00,
2013-09-01 22:31:00,70.5,67.8,29.87,SE,141,0.0,0.0,91,0.00,,CLR,0.03,VWS V13.01,2013-09-02 02:31:00,
2013-09-01 22:36:00,70.5,67.8,29.87,SE,141,0.0,0.0,91,0.00,,,0.03,VWS V13.01,2013-09-02 02:36:00,
2013-09-01 22:41:00,70.5,67.8,29.87,SE,141,0.0,0.0,91,0.00,,,0.03,VWS V13.01,2013-09-02 02:41:00,
2013-09-01 22:46:00,70.3,67.6,29.87,SE,141,0.0,0.0,91,0.00,,,0.03,VWS V13.01,2013-09-02 02:46:00,
2013-09-01 22:51:00,70.3,67.9,29.87,SE,141,0.0,0.0,92,0.00,,,0.03,VWS V13.01,2013-09-02 02:51:00,
2013-09-01 22:56:00,70.3,67.9,29.87,SE,141,0.0,0.0,92,0.00,,OVC110,0.03,VWS V13.01,2013-09-02 02:56:00,
2013-09-01 23:01:00,70.3,67.9,29.87,SE,141,0.0,0.0,92,0.00,,OVC110,0.03,VWS V13.01,2013-09-02 03:01:00,
2013-09-01 23:06:00,70.3,68.2,29.87,SE,141,0.0,0.0,93,0.00,,OVC110,0.03,VWS V13.01,2013-09-02 03:06:00,
2013-09-01 23:11:00,70.3,68.2,29.87,SE,141,0.0,0.0,93,0.00,,OVC110,0.03,VWS V13.01,2013-09-02 03:11:00,
2013-09-01 23:16:00,70.2,68.1,29.84,SE,141,0.0,0.0,93,0.00,,,0.03,VWS V13.01,2013-09-02 03:16:00,
2013-09-01 23:21:00,70.2,68.1,29.84,SE,141,0.0,0.0,93,0.00,,,0.03,VWS V13.01,2013-09-02 03:21:00,
2013-09-01 23:26:00,70.2,68.4,29.84,SE,141,0.0,0.0,94,0.00,,,0.03,VWS V13.01,2013-09-02 03:26:00,
2013-09-01 23:31:00,70.2,68.4,29.84,SE,141,0.0,0.0,94,0.00,,,0.03,VWS V13.01,2013-09-02 03:31:00,
2013-09-01 23:36:00,70.2,68.4,29.84,SE,141,0.0,0.0,94,0.00,,,0.03,VWS V13.01,2013-09-02 03:36:00,
2013-09-01 23:41:00,70.0,68.2,29.84,SE,141,0.0,0.0,94,0.00,,,0.03,VWS V13.01,2013-09-02 03:41:00,
2013-09-01 23:46:00,70.0,68.2,29.84,SE,141,0.0,0.0,94,0.00,,,0.03,VWS V13.01,2013-09-02 03:46:00,
2013-09-01 23:51:00,70.0,68.2,29.84,SE,141,0.0,0.0,94,0.00,,,0.03,VWS V13.01,2013-09-02 03:51:00,
2013-09-01 23:56:00,70.0,68.2,29.84,SE,141,0.0,0.0,94,0.00,,,0.03,VWS V13.01,2013-09-02 03:56:00,